Main page
METAR-TAF:

METAR-TAF

Airports :

General Ulpiano Paez Airport

Salinas, Ecuador

latitude: 02-12-18S, longitude: 080-59-20W, elevation: 5 m

Current weather observation

The report was made 30 minutes ago, at 12:00 UTC
Wind 6 kt from the South
Temperature 22°C
Humidity 88%
Pressure 1014 hPa
Visibility 10 km or more
no clouds below 1500 m and no cumulonimbus

METAR: SESA 281200Z 17006KT CAVOK 22/20 Q1014 RMK A2995

Time: 07:30 (12:30 UTC)


TAF: missing

Weather observations and forecasts of more than 4000 airports (METAR and TAF reports).

The available stations are represented by yellow and red dots on the map.

Hover mouse over dot to see the name of the station.

Then click to see weather observations and forecasts.

To change the map : click on the green buttons with a black cross to zoom in, on the green button with a dash to zoom out, or on the green arrows for adjacent maps.


METAR-TAF: